sensor_id;sensor_type;location;lat;lon;timestamp;pressure;altitude;pressure_sealevel;temperature;humidity
39295;BME280;52361;52.100;5.248;2022-11-15T00:00:16;100747.0;;;9.22;100.0
39295;BME280;52361;52.100;5.248;2022-11-15T00:01:53;100748.0;;;9.31;100.0
39295;BME280;52361;52.100;5.248;2022-11-15T00:03:29;100744.0;;;9.24;100.0
39295;BME280;52361;52.100;5.248;2022-11-15T00:05:05;100742.0;;;9.28;100.0
39295;BME280;52361;52.100;5.248;2022-11-15T00:08:18;100734.0;;;9.38;100.0
39295;BME280;52361;52.100;5.248;2022-11-15T00:09:55;100737.0;;;9.17;100.0
39295;BME280;52361;52.100;5.248;2022-11-15T00:11:32;100740.0;;;9.16;100.0
39295;BME280;52361;52.100;5.248;2022-11-15T00:14:46;100734.0;;;9.17;100.0
39295;BME280;52361;52.100;5.248;2022-11-15T00:16:22;100738.0;;;8.91;100.0
39295;BME280;52361;52.100;5.248;2022-11-15T00:17:59;100741.0;;;9.06;100.0
39295;BME280;52361;52.100;5.248;2022-11-15T00:21:13;100736.0;;;9.1;100.0
39295;BME280;52361;52.100;5.248;2022-11-15T00:22:52;100734.0;;;9.15;100.0
39295;BME280;52361;52.100;5.248;2022-11-15T00:24:28;100732.0;;;9.26;100.0
39295;BME280;52361;52.100;5.248;2022-11-15T00:26:04;100732.0;;;9.31;100.0
39295;BME280;52361;52.100;5.248;2022-11-15T00:29:17;100726.0;;;9.28;100.0
39295;BME280;52361;52.100;5.248;2022-11-15T00:30:53;100723.0;;;9.26;100.0
39295;BME280;52361;52.100;5.248;2022-11-15T00:32:34;100730.0;;;9.23;100.0
39295;BME280;52361;52.100;5.248;2022-11-15T00:35:47;100726.0;;;9.25;100.0
39295;BME280;52361;52.100;5.248;2022-11-15T00:37:23;100726.0;;;9.18;100.0
39295;BME280;52361;52.100;5.248;2022-11-15T00:38:59;100721.0;;;8.99;100.0
39295;BME280;52361;52.100;5.248;2022-11-15T00:42:11;100717.0;;;9.14;100.0
39295;BME280;52361;52.100;5.248;2022-11-15T00:43:47;100722.0;;;9.23;100.0
39295;BME280;52361;52.100;5.248;2022-11-15T00:45:24;100719.0;;;9.01;100.0
39295;BME280;52361;52.100;5.248;2022-11-15T00:47:01;100716.0;;;9.11;100.0
39295;BME280;52361;52.100;5.248;2022-11-15T00:50:14;100716.0;;;9.21;100.0
39295;BME280;52361;52.100;5.248;2022-11-15T00:51:51;100713.0;;;9.22;100.0
39295;BME280;52361;52.100;5.248;2022-11-15T00:53:27;100712.0;;;9.25;100.0
39295;BME280;52361;52.100;5.248;2022-11-15T00:56:40;100719.0;;;9.31;100.0
39295;BME280;52361;52.100;5.248;2022-11-15T00:58:16;100709.0;;;9.26;100.0
39295;BME280;52361;52.100;5.248;2022-11-15T00:59:52;100714.0;;;9.34;100.0
39295;BME280;52361;52.100;5.248;2022-11-15T01:03:05;100708.0;;;9.21;100.0
39295;BME280;52361;52.100;5.248;2022-11-15T01:04:41;100702.0;;;9.23;100.0
39295;BME280;52361;52.100;5.248;2022-11-15T01:06:17;100705.0;;;9.23;100.0
39295;BME280;52361;52.100;5.248;2022-11-15T01:07:54;100694.0;;;9.11;100.0
39295;BME280;52361;52.100;5.248;2022-11-15T01:11:10;100699.0;;;9.18;100.0
39295;BME280;52361;52.100;5.248;2022-11-15T01:12:47;100693.0;;;9.34;100.0
39295;BME280;52361;52.100;5.248;2022-11-15T01:14:23;100700.0;;;9.35;100.0
39295;BME280;52361;52.100;5.248;2022-11-15T01:17:41;100688.0;;;9.38;100.0
39295;BME280;52361;52.100;5.248;2022-11-15T01:19:17;100691.0;;;9.32;100.0
39295;BME280;52361;52.100;5.248;2022-11-15T01:20:53;100694.0;;;9.21;100.0
39295;BME280;52361;52.100;5.248;2022-11-15T01:22:30;100687.0;;;9.41;100.0
39295;BME280;52361;52.100;5.248;2022-11-15T01:25:44;100688.0;;;9.41;100.0
39295;BME280;52361;52.100;5.248;2022-11-15T01:27:20;100687.0;;;9.48;100.0
39295;BME280;52361;52.100;5.248;2022-11-15T01:28:56;100690.0;;;9.59;100.0
39295;BME280;52361;52.100;5.248;2022-11-15T01:32:09;100695.0;;;9.63;100.0
39295;BME280;52361;52.100;5.248;2022-11-15T01:33:45;100694.0;;;9.5;100.0
39295;BME280;52361;52.100;5.248;2022-11-15T01:35:23;100685.0;;;9.57;100.0
39295;BME280;52361;52.100;5.248;2022-11-15T01:38:36;100685.0;;;9.44;100.0
39295;BME280;52361;52.100;5.248;2022-11-15T01:40:13;100675.0;;;9.28;100.0
39295;BME280;52361;52.100;5.248;2022-11-15T01:41:50;100680.0;;;9.47;100.0
39295;BME280;52361;52.100;5.248;2022-11-15T01:43:29;100675.0;;;9.61;100.0
39295;BME280;52361;52.100;5.248;2022-11-15T01:46:51;100675.0;;;9.67;100.0
39295;BME280;52361;52.100;5.248;2022-11-15T01:48:31;100669.0;;;9.73;100.0
39295;BME280;52361;52.100;5.248;2022-11-15T01:50:12;100668.0;;;9.75;100.0
39295;BME280;52361;52.100;5.248;2022-11-15T01:51:51;100664.0;;;9.71;100.0
39295;BME280;52361;52.100;5.248;2022-11-15T01:55:09;100667.0;;;9.8;100.0
39295;BME280;52361;52.100;5.248;2022-11-15T01:56:50;100669.0;;;9.88;100.0
39295;BME280;52361;52.100;5.248;2022-11-15T01:58:30;100669.0;;;9.81;100.0
39295;BME280;52361;52.100;5.248;2022-11-15T02:01:46;100669.0;;;9.89;100.0
39295;BME280;52361;52.100;5.248;2022-11-15T02:03:26;100666.0;;;9.9;100.0
39295;BME280;52361;52.100;5.248;2022-11-15T02:05:08;100661.0;;;10.02;100.0
39295;BME280;52361;52.100;5.248;2022-11-15T02:06:46;100659.0;;;10.07;100.0
39295;BME280;52361;52.100;5.248;2022-11-15T02:10:06;100659.0;;;9.82;100.0
39295;BME280;52361;52.100;5.248;2022-11-15T02:11:46;100652.0;;;9.98;100.0
39295;BME280;52361;52.100;5.248;2022-11-15T02:13:24;100649.0;;;10.07;100.0
39295;BME280;52361;52.100;5.248;2022-11-15T02:15:01;100647.0;;;10.13;100.0
39295;BME280;52361;52.100;5.248;2022-11-15T02:18:35;100640.0;;;10.15;100.0
39295;BME280;52361;52.100;5.248;2022-11-15T02:20:30;100636.0;;;10.11;100.0
39295;BME280;52361;52.100;5.248;2022-11-15T02:22:37;100634.0;;;10.19;100.0
39295;BME280;52361;52.100;5.248;2022-11-15T02:24:36;100626.0;;;10.29;100.0
39295;BME280;52361;52.100;5.248;2022-11-15T02:26:50;100631.0;;;10.3;100.0
39295;BME280;52361;52.100;5.248;2022-11-15T02:28:50;100621.0;;;10.4;100.0
39295;BME280;52361;52.100;5.248;2022-11-15T02:30:38;100618.0;;;10.46;100.0
39295;BME280;52361;52.100;5.248;2022-11-15T02:32:20;100620.0;;;10.46;100.0
39295;BME280;52361;52.100;5.248;2022-11-15T02:34:04;100620.0;;;10.5;100.0
39295;BME280;52361;52.100;5.248;2022-11-15T02:35:52;100616.0;;;10.53;100.0
39295;BME280;52361;52.100;5.248;2022-11-15T02:39:27;100614.0;;;10.63;100.0
39295;BME280;52361;52.100;5.248;2022-11-15T02:41:09;100610.0;;;10.79;100.0
39295;BME280;52361;52.100;5.248;2022-11-15T02:44:10;100605.0;;;10.75;100.0
39295;BME280;52361;52.100;5.248;2022-11-15T02:45:53;100605.0;;;10.81;100.0
39295;BME280;52361;52.100;5.248;2022-11-15T02:47:35;100605.0;;;10.92;100.0
39295;BME280;52361;52.100;5.248;2022-11-15T02:49:17;100599.0;;;10.79;100.0
39295;BME280;52361;52.100;5.248;2022-11-15T02:50:55;100597.0;;;10.74;100.0
39295;BME280;52361;52.100;5.248;2022-11-15T02:52:32;100592.0;;;10.79;100.0
39295;BME280;52361;52.100;5.248;2022-11-15T02:55:51;100591.0;;;10.82;100.0
39295;BME280;52361;52.100;5.248;2022-11-15T02:57:38;100590.0;;;10.84;100.0
39295;BME280;52361;52.100;5.248;2022-11-15T02:59:34;100584.0;;;10.86;100.0
39295;BME280;52361;52.100;5.248;2022-11-15T03:01:38;100583.0;;;10.88;100.0
39295;BME280;52361;52.100;5.248;2022-11-15T03:03:36;100581.0;;;10.78;100.0
39295;BME280;52361;52.100;5.248;2022-11-15T03:05:22;100588.0;;;10.89;100.0
39295;BME280;52361;52.100;5.248;2022-11-15T03:08:53;100586.0;;;10.98;100.0
39295;BME280;52361;52.100;5.248;2022-11-15T03:10:42;100595.0;;;11.0;100.0
39295;BME280;52361;52.100;5.248;2022-11-15T03:12:25;100595.0;;;11.1;100.0
39295;BME280;52361;52.100;5.248;2022-11-15T03:14:12;100591.0;;;11.07;100.0
39295;BME280;52361;52.100;5.248;2022-11-15T03:16:02;100589.0;;;11.05;100.0
39295;BME280;52361;52.100;5.248;2022-11-15T03:17:45;100584.0;;;11.07;100.0
39295;BME280;52361;52.100;5.248;2022-11-15T03:21:12;100588.0;;;11.05;100.0
39295;BME280;52361;52.100;5.248;2022-11-15T03:22:51;100588.0;;;11.05;100.0
39295;BME280;52361;52.100;5.248;2022-11-15T03:24:32;100594.0;;;11.12;100.0
39295;BME280;52361;52.100;5.248;2022-11-15T03:26:12;100590.0;;;11.17;100.0
39295;BME280;52361;52.100;5.248;2022-11-15T03:29:36;100591.0;;;11.21;100.0
39295;BME280;52361;52.100;5.248;2022-11-15T03:32:20;100593.0;;;11.27;100.0
39295;BME280;52361;52.100;5.248;2022-11-15T03:34:02;100590.0;;;11.35;100.0
39295;BME280;52361;52.100;5.248;2022-11-15T03:35:44;100594.0;;;11.33;100.0
39295;BME280;52361;52.100;5.248;2022-11-15T03:37:24;100595.0;;;11.37;100.0
39295;BME280;52361;52.100;5.248;2022-11-15T03:39:06;100594.0;;;11.28;100.0
39295;BME280;52361;52.100;5.248;2022-11-15T03:40:47;100598.0;;;11.35;100.0
39295;BME280;52361;52.100;5.248;2022-11-15T03:44:16;100597.0;;;11.37;100.0
39295;BME280;52361;52.100;5.248;2022-11-15T03:46:01;100596.0;;;11.42;100.0
39295;BME280;52361;52.100;5.248;2022-11-15T03:47:40;100600.0;;;11.48;100.0
39295;BME280;52361;52.100;5.248;2022-11-15T03:49:24;100593.0;;;11.58;100.0
39295;BME280;52361;52.100;5.248;2022-11-15T03:51:03;100595.0;;;11.6;100.0
39295;BME280;52361;52.100;5.248;2022-11-15T03:54:18;100592.0;;;11.66;100.0
39295;BME280;52361;52.100;5.248;2022-11-15T03:55:54;100588.0;;;11.68;100.0
39295;BME280;52361;52.100;5.248;2022-11-15T03:57:31;100586.0;;;11.74;100.0
39295;BME280;52361;52.100;5.248;2022-11-15T04:00:43;100582.0;;;11.73;100.0
39295;BME280;52361;52.100;5.248;2022-11-15T04:02:19;100580.0;;;11.79;100.0
39295;BME280;52361;52.100;5.248;2022-11-15T04:03:55;100581.0;;;11.85;100.0
39295;BME280;52361;52.100;5.248;2022-11-15T04:07:07;100581.0;;;11.9;100.0
39295;BME280;52361;52.100;5.248;2022-11-15T04:08:43;100578.0;;;11.89;100.0
39295;BME280;52361;52.100;5.248;2022-11-15T04:10:20;100584.0;;;11.87;100.0
39295;BME280;52361;52.100;5.248;2022-11-15T04:11:56;100581.0;;;11.96;100.0
39295;BME280;52361;52.100;5.248;2022-11-15T04:15:10;100580.0;;;11.93;100.0
39295;BME280;52361;52.100;5.248;2022-11-15T04:16:47;100580.0;;;11.97;100.0
39295;BME280;52361;52.100;5.248;2022-11-15T04:18:24;100578.0;;;12.06;100.0
39295;BME280;52361;52.100;5.248;2022-11-15T04:24:14;100572.0;;;12.03;100.0
39295;BME280;52361;52.100;5.248;2022-11-15T04:25:52;100570.0;;;12.0;100.0
39295;BME280;52361;52.100;5.248;2022-11-15T04:27:30;100564.0;;;12.03;100.0
39295;BME280;52361;52.100;5.248;2022-11-15T04:29:38;100564.0;;;12.02;100.0
39295;BME280;52361;52.100;5.248;2022-11-15T04:31:14;100566.0;;;12.05;100.0
39295;BME280;52361;52.100;5.248;2022-11-15T04:34:27;100565.0;;;12.03;100.0
39295;BME280;52361;52.100;5.248;2022-11-15T04:37:20;100565.0;;;11.96;100.0
39295;BME280;52361;52.100;5.248;2022-11-15T04:38:58;100562.0;;;11.95;100.0
39295;BME280;52361;52.100;5.248;2022-11-15T04:40:35;100564.0;;;12.01;100.0
39295;BME280;52361;52.100;5.248;2022-11-15T04:42:12;100564.0;;;12.08;100.0
39295;BME280;52361;52.100;5.248;2022-11-15T04:43:48;100563.0;;;12.17;100.0
39295;BME280;52361;52.100;5.248;2022-11-15T04:45:24;100562.0;;;12.1;100.0
39295;BME280;52361;52.100;5.248;2022-11-15T04:48:38;100561.0;;;12.12;100.0
39295;BME280;52361;52.100;5.248;2022-11-15T04:50:15;100561.0;;;12.13;100.0
39295;BME280;52361;52.100;5.248;2022-11-15T04:51:52;100562.0;;;12.11;100.0
39295;BME280;52361;52.100;5.248;2022-11-15T04:55:05;100571.0;;;12.23;100.0
39295;BME280;52361;52.100;5.248;2022-11-15T04:56:42;100571.0;;;12.28;100.0
39295;BME280;52361;52.100;5.248;2022-11-15T04:58:18;100570.0;;;12.26;100.0
39295;BME280;52361;52.100;5.248;2022-11-15T05:01:30;100563.0;;;12.27;100.0
39295;BME280;52361;52.100;5.248;2022-11-15T05:04:23;100570.0;;;12.32;100.0
39295;BME280;52361;52.100;5.248;2022-11-15T05:06:00;100569.0;;;12.3;100.0
39295;BME280;52361;52.100;5.248;2022-11-15T05:07:36;100575.0;;;12.26;100.0
39295;BME280;52361;52.100;5.248;2022-11-15T05:09:13;100580.0;;;12.38;100.0
39295;BME280;52361;52.100;5.248;2022-11-15T05:10:49;100577.0;;;12.4;100.0
39295;BME280;52361;52.100;5.248;2022-11-15T05:14:01;100573.0;;;12.37;100.0
39295;BME280;52361;52.100;5.248;2022-11-15T05:15:38;100570.0;;;12.46;100.0
39295;BME280;52361;52.100;5.248;2022-11-15T05:17:14;100581.0;;;12.37;100.0
39295;BME280;52361;52.100;5.248;2022-11-15T05:20:27;100583.0;;;12.42;100.0
39295;BME280;52361;52.100;5.248;2022-11-15T05:22:03;100582.0;;;12.48;100.0
39295;BME280;52361;52.100;5.248;2022-11-15T05:23:40;100582.0;;;12.5;100.0
39295;BME280;52361;52.100;5.248;2022-11-15T05:25:16;100580.0;;;12.51;100.0
39295;BME280;52361;52.100;5.248;2022-11-15T05:28:29;100577.0;;;12.48;100.0
39295;BME280;52361;52.100;5.248;2022-11-15T05:30:07;100576.0;;;12.4;100.0
39295;BME280;52361;52.100;5.248;2022-11-15T05:31:43;100584.0;;;12.48;100.0
39295;BME280;52361;52.100;5.248;2022-11-15T05:34:56;100585.0;;;12.5;100.0
39295;BME280;52361;52.100;5.248;2022-11-15T05:36:35;100577.0;;;12.54;100.0
39295;BME280;52361;52.100;5.248;2022-11-15T05:38:13;100576.0;;;12.26;100.0
39295;BME280;52361;52.100;5.248;2022-11-15T05:39:49;100581.0;;;12.46;100.0
39295;BME280;52361;52.100;5.248;2022-11-15T05:43:09;100586.0;;;12.56;100.0
39295;BME280;52361;52.100;5.248;2022-11-15T05:44:48;100583.0;;;12.58;100.0
39295;BME280;52361;52.100;5.248;2022-11-15T05:46:27;100588.0;;;12.67;100.0
39295;BME280;52361;52.100;5.248;2022-11-15T05:49:46;100588.0;;;12.6;100.0
39295;BME280;52361;52.100;5.248;2022-11-15T05:51:23;100590.0;;;12.68;100.0
39295;BME280;52361;52.100;5.248;2022-11-15T05:53:01;100595.0;;;12.74;100.0
39295;BME280;52361;52.100;5.248;2022-11-15T05:54:37;100589.0;;;12.64;100.0
39295;BME280;52361;52.100;5.248;2022-11-15T05:57:52;100590.0;;;12.7;100.0
39295;BME280;52361;52.100;5.248;2022-11-15T05:59:29;100593.0;;;12.76;100.0
39295;BME280;52361;52.100;5.248;2022-11-15T06:01:06;100596.0;;;12.74;100.0
39295;BME280;52361;52.100;5.248;2022-11-15T06:04:18;100596.0;;;12.75;100.0
39295;BME280;52361;52.100;5.248;2022-11-15T06:05:54;100600.0;;;12.82;100.0
39295;BME280;52361;52.100;5.248;2022-11-15T06:07:32;100599.0;;;12.82;100.0
39295;BME280;52361;52.100;5.248;2022-11-15T06:09:09;100597.0;;;12.76;100.0
39295;BME280;52361;52.100;5.248;2022-11-15T06:12:21;100596.0;;;12.8;100.0
39295;BME280;52361;52.100;5.248;2022-11-15T06:13:57;100595.0;;;12.81;100.0
39295;BME280;52361;52.100;5.248;2022-11-15T06:15:33;100590.0;;;12.87;100.0
39295;BME280;52361;52.100;5.248;2022-11-15T06:18:47;100601.0;;;12.89;100.0
39295;BME280;52361;52.100;5.248;2022-11-15T06:20:23;100599.0;;;12.83;100.0
39295;BME280;52361;52.100;5.248;2022-11-15T06:21:59;100601.0;;;12.8;100.0
39295;BME280;52361;52.100;5.248;2022-11-15T06:25:11;100608.0;;;12.76;100.0
39295;BME280;52361;52.100;5.248;2022-11-15T06:26:47;100609.0;;;12.78;100.0
39295;BME280;52361;52.100;5.248;2022-11-15T06:28:24;100610.0;;;12.87;100.0
39295;BME280;52361;52.100;5.248;2022-11-15T06:30:00;100605.0;;;12.91;100.0
39295;BME280;52361;52.100;5.248;2022-11-15T06:33:12;100609.0;;;12.92;100.0
39295;BME280;52361;52.100;5.248;2022-11-15T06:34:48;100614.0;;;12.96;100.0
39295;BME280;52361;52.100;5.248;2022-11-15T06:36:24;100611.0;;;13.02;100.0
39295;BME280;52361;52.100;5.248;2022-11-15T06:39:40;100606.0;;;13.06;100.0
39295;BME280;52361;52.100;5.248;2022-11-15T06:41:17;100605.0;;;13.13;100.0
39295;BME280;52361;52.100;5.248;2022-11-15T06:42:57;100606.0;;;13.1;100.0
39295;BME280;52361;52.100;5.248;2022-11-15T06:46:10;100607.0;;;13.06;100.0
39295;BME280;52361;52.100;5.248;2022-11-15T06:47:47;100611.0;;;13.04;100.0
39295;BME280;52361;52.100;5.248;2022-11-15T06:49:23;100610.0;;;12.97;100.0
39295;BME280;52361;52.100;5.248;2022-11-15T06:51:01;100615.0;;;12.95;100.0
39295;BME280;52361;52.100;5.248;2022-11-15T06:54:15;100622.0;;;13.04;100.0
39295;BME280;52361;52.100;5.248;2022-11-15T06:55:51;100623.0;;;13.06;100.0
39295;BME280;52361;52.100;5.248;2022-11-15T06:57:28;100627.0;;;13.06;100.0
39295;BME280;52361;52.100;5.248;2022-11-15T07:00:41;100631.0;;;12.96;100.0
39295;BME280;52361;52.100;5.248;2022-11-15T07:02:17;100631.0;;;12.99;100.0
39295;BME280;52361;52.100;5.248;2022-11-15T07:03:54;100635.0;;;13.05;100.0
39295;BME280;52361;52.100;5.248;2022-11-15T07:07:07;100639.0;;;13.05;100.0
39295;BME280;52361;52.100;5.248;2022-11-15T07:08:43;100637.0;;;13.05;100.0
39295;BME280;52361;52.100;5.248;2022-11-15T07:10:19;100636.0;;;13.02;100.0
39295;BME280;52361;52.100;5.248;2022-11-15T07:11:56;100635.0;;;13.06;100.0
39295;BME280;52361;52.100;5.248;2022-11-15T07:15:11;100641.0;;;13.07;100.0
39295;BME280;52361;52.100;5.248;2022-11-15T07:16:47;100643.0;;;13.11;100.0
39295;BME280;52361;52.100;5.248;2022-11-15T07:18:23;100638.0;;;13.04;100.0
39295;BME280;52361;52.100;5.248;2022-11-15T07:21:36;100636.0;;;13.03;100.0
39295;BME280;52361;52.100;5.248;2022-11-15T07:23:13;100640.0;;;12.94;100.0
39295;BME280;52361;52.100;5.248;2022-11-15T07:24:49;100640.0;;;12.95;100.0
39295;BME280;52361;52.100;5.248;2022-11-15T07:28:01;100642.0;;;13.04;100.0
39295;BME280;52361;52.100;5.248;2022-11-15T07:29:38;100643.0;;;12.94;100.0
39295;BME280;52361;52.100;5.248;2022-11-15T07:31:14;100645.0;;;12.86;100.0
39295;BME280;52361;52.100;5.248;2022-11-15T07:32:52;100644.0;;;12.95;100.0
39295;BME280;52361;52.100;5.248;2022-11-15T07:36:07;100644.0;;;12.93;100.0
39295;BME280;52361;52.100;5.248;2022-11-15T07:37:44;100643.0;;;12.93;100.0
39295;BME280;52361;52.100;5.248;2022-11-15T07:39:29;100641.0;;;12.97;100.0
39295;BME280;52361;52.100;5.248;2022-11-15T07:42:59;100641.0;;;13.02;100.0
39295;BME280;52361;52.100;5.248;2022-11-15T07:44:35;100633.0;;;12.96;100.0
39295;BME280;52361;52.100;5.248;2022-11-15T07:46:11;100630.0;;;12.98;100.0
39295;BME280;52361;52.100;5.248;2022-11-15T07:47:48;100626.0;;;12.93;100.0
39295;BME280;52361;52.100;5.248;2022-11-15T07:51:01;100623.0;;;12.93;100.0
39295;BME280;52361;52.100;5.248;2022-11-15T07:52:38;100626.0;;;12.91;100.0
39295;BME280;52361;52.100;5.248;2022-11-15T07:54:14;100630.0;;;12.93;100.0
39295;BME280;52361;52.100;5.248;2022-11-15T07:55:50;100632.0;;;13.03;100.0
39295;BME280;52361;52.100;5.248;2022-11-15T07:59:03;100633.0;;;13.04;100.0
39295;BME280;52361;52.100;5.248;2022-11-15T08:00:39;100632.0;;;13.02;100.0
39295;BME280;52361;52.100;5.248;2022-11-15T08:02:17;100634.0;;;13.07;100.0
39295;BME280;52361;52.100;5.248;2022-11-15T08:05:30;100630.0;;;13.08;100.0
39295;BME280;52361;52.100;5.248;2022-11-15T08:07:06;100627.0;;;13.12;100.0
39295;BME280;52361;52.100;5.248;2022-11-15T08:08:42;100622.0;;;13.11;100.0
39295;BME280;52361;52.100;5.248;2022-11-15T08:11:56;100624.0;;;13.0;100.0
39295;BME280;52361;52.100;5.248;2022-11-15T08:13:32;100621.0;;;13.08;100.0
39295;BME280;52361;52.100;5.248;2022-11-15T08:15:09;100621.0;;;13.08;100.0
39295;BME280;52361;52.100;5.248;2022-11-15T08:16:45;100623.0;;;13.14;100.0
39295;BME280;52361;52.100;5.248;2022-11-15T08:19:58;100621.0;;;13.18;100.0
39295;BME280;52361;52.100;5.248;2022-11-15T08:21:35;100620.0;;;13.16;100.0
39295;BME280;52361;52.100;5.248;2022-11-15T08:23:11;100618.0;;;13.12;100.0
39295;BME280;52361;52.100;5.248;2022-11-15T08:26:26;100613.0;;;13.17;100.0
39295;BME280;52361;52.100;5.248;2022-11-15T08:28:05;100614.0;;;13.19;100.0
39295;BME280;52361;52.100;5.248;2022-11-15T08:29:43;100615.0;;;13.2;100.0
39295;BME280;52361;52.100;5.248;2022-11-15T08:31:20;100618.0;;;13.27;100.0
39295;BME280;52361;52.100;5.248;2022-11-15T08:34:34;100615.0;;;13.09;100.0
39295;BME280;52361;52.100;5.248;2022-11-15T08:36:13;100610.0;;;13.12;100.0
39295;BME280;52361;52.100;5.248;2022-11-15T08:37:52;100605.0;;;13.2;100.0
39295;BME280;52361;52.100;5.248;2022-11-15T08:41:06;100601.0;;;13.28;100.0
39295;BME280;52361;52.100;5.248;2022-11-15T08:42:42;100598.0;;;13.02;100.0
39295;BME280;52361;52.100;5.248;2022-11-15T08:44:21;100594.0;;;13.15;100.0
39295;BME280;52361;52.100;5.248;2022-11-15T08:47:34;100591.0;;;13.21;100.0
39295;BME280;52361;52.100;5.248;2022-11-15T08:49:11;100587.0;;;13.19;100.0
39295;BME280;52361;52.100;5.248;2022-11-15T08:50:47;100591.0;;;13.2;100.0
39295;BME280;52361;52.100;5.248;2022-11-15T08:52:23;100590.0;;;13.27;100.0
39295;BME280;52361;52.100;5.248;2022-11-15T08:55:36;100588.0;;;13.31;100.0
39295;BME280;52361;52.100;5.248;2022-11-15T08:57:14;100590.0;;;13.35;100.0
39295;BME280;52361;52.100;5.248;2022-11-15T08:58:51;100594.0;;;13.29;100.0
39295;BME280;52361;52.100;5.248;2022-11-15T09:02:03;100592.0;;;13.36;100.0
39295;BME280;52361;52.100;5.248;2022-11-15T09:03:40;100597.0;;;13.23;100.0
39295;BME280;52361;52.100;5.248;2022-11-15T09:05:16;100598.0;;;13.31;100.0
39295;BME280;52361;52.100;5.248;2022-11-15T09:06:55;100588.0;;;13.46;100.0
39295;BME280;52361;52.100;5.248;2022-11-15T09:10:08;100590.0;;;13.5;100.0
39295;BME280;52361;52.100;5.248;2022-11-15T09:11:44;100591.0;;;13.59;100.0
39295;BME280;52361;52.100;5.248;2022-11-15T09:13:21;100590.0;;;13.53;100.0
39295;BME280;52361;52.100;5.248;2022-11-15T09:16:34;100589.0;;;13.56;100.0
39295;BME280;52361;52.100;5.248;2022-11-15T09:18:10;100590.0;;;13.58;100.0
39295;BME280;52361;52.100;5.248;2022-11-15T09:19:45;100583.0;;;13.65;100.0
39295;BME280;52361;52.100;5.248;2022-11-15T09:22:59;100586.0;;;13.6;100.0
39295;BME280;52361;52.100;5.248;2022-11-15T09:24:35;100584.0;;;13.74;100.0
39295;BME280;52361;52.100;5.248;2022-11-15T09:26:12;100585.0;;;13.71;100.0
39295;BME280;52361;52.100;5.248;2022-11-15T09:27:49;100583.0;;;13.76;100.0
39295;BME280;52361;52.100;5.248;2022-11-15T09:31:03;100580.0;;;13.83;100.0
39295;BME280;52361;52.100;5.248;2022-11-15T09:32:41;100573.0;;;13.85;100.0
39295;BME280;52361;52.100;5.248;2022-11-15T09:34:18;100578.0;;;13.8;100.0
39295;BME280;52361;52.100;5.248;2022-11-15T09:37:35;100578.0;;;13.74;100.0
39295;BME280;52361;52.100;5.248;2022-11-15T09:39:11;100573.0;;;13.64;100.0
39295;BME280;52361;52.100;5.248;2022-11-15T09:40:53;100567.0;;;13.62;100.0
39295;BME280;52361;52.100;5.248;2022-11-15T09:42:54;100563.0;;;13.68;100.0
39295;BME280;52361;52.100;5.248;2022-11-15T09:44:43;100565.0;;;13.7;100.0
39295;BME280;52361;52.100;5.248;2022-11-15T09:48:30;100570.0;;;13.85;100.0
39295;BME280;52361;52.100;5.248;2022-11-15T09:50:32;100572.0;;;13.85;100.0
39295;BME280;52361;52.100;5.248;2022-11-15T09:52:10;100580.0;;;13.88;100.0
39295;BME280;52361;52.100;5.248;2022-11-15T09:53:51;100569.0;;;13.85;100.0
39295;BME280;52361;52.100;5.248;2022-11-15T09:55:36;100572.0;;;13.89;100.0
39295;BME280;52361;52.100;5.248;2022-11-15T09:57:37;100574.0;;;13.9;100.0
39295;BME280;52361;52.100;5.248;2022-11-15T09:59:56;100575.0;;;13.94;100.0
39295;BME280;52361;52.100;5.248;2022-11-15T10:01:40;100570.0;;;13.98;100.0
39295;BME280;52361;52.100;5.248;2022-11-15T10:03:27;100571.0;;;14.11;100.0
39295;BME280;52361;52.100;5.248;2022-11-15T10:06:55;100576.0;;;14.14;100.0
39295;BME280;52361;52.100;5.248;2022-11-15T10:08:51;100574.0;;;14.2;100.0
39295;BME280;52361;52.100;5.248;2022-11-15T10:10:37;100566.0;;;14.25;100.0
39295;BME280;52361;52.100;5.248;2022-11-15T10:12:15;100567.0;;;14.25;100.0
39295;BME280;52361;52.100;5.248;2022-11-15T10:13:56;100565.0;;;14.2;98.93
39295;BME280;52361;52.100;5.248;2022-11-15T10:17:22;100559.0;;;14.22;98.97
39295;BME280;52361;52.100;5.248;2022-11-15T10:20:15;100551.0;;;14.23;98.52
39295;BME280;52361;52.100;5.248;2022-11-15T10:23:44;100548.0;;;14.26;98.81
39295;BME280;52361;52.100;5.248;2022-11-15T10:25:23;100553.0;;;14.25;97.73
39295;BME280;52361;52.100;5.248;2022-11-15T10:27:00;100542.0;;;14.06;96.58
39295;BME280;52361;52.100;5.248;2022-11-15T10:28:37;100538.0;;;13.98;96.96
39295;BME280;52361;52.100;5.248;2022-11-15T10:31:53;100536.0;;;13.88;98.34
39295;BME280;52361;52.100;5.248;2022-11-15T10:33:31;100540.0;;;14.09;98.37
39295;BME280;52361;52.100;5.248;2022-11-15T10:35:19;100531.0;;;14.08;97.19
39295;BME280;52361;52.100;5.248;2022-11-15T10:37:03;100532.0;;;14.21;97.04
39295;BME280;52361;52.100;5.248;2022-11-15T10:40:29;100531.0;;;14.12;97.04
39295;BME280;52361;52.100;5.248;2022-11-15T10:42:16;100526.0;;;14.2;97.32
39295;BME280;52361;52.100;5.248;2022-11-15T10:44:29;100523.0;;;14.21;97.54
39295;BME280;52361;52.100;5.248;2022-11-15T10:46:18;100523.0;;;14.12;96.56
39295;BME280;52361;52.100;5.248;2022-11-15T10:48:20;100505.0;;;14.1;96.36
39295;BME280;52361;52.100;5.248;2022-11-15T10:50:03;100507.0;;;14.08;96.29
39295;BME280;52361;52.100;5.248;2022-11-15T10:51:45;100505.0;;;14.03;95.4
39295;BME280;52361;52.100;5.248;2022-11-15T10:55:22;100497.0;;;13.91;94.43
39295;BME280;52361;52.100;5.248;2022-11-15T10:57:05;100491.0;;;13.79;95.24
39295;BME280;52361;52.100;5.248;2022-11-15T10:58:49;100498.0;;;13.82;96.22
39295;BME280;52361;52.100;5.248;2022-11-15T11:00:29;100502.0;;;13.98;95.73
39295;BME280;52361;52.100;5.248;2022-11-15T11:02:27;100499.0;;;14.0;94.77
39295;BME280;52361;52.100;5.248;2022-11-15T11:04:11;100498.0;;;14.01;95.25
39295;BME280;52361;52.100;5.248;2022-11-15T11:07:25;100490.0;;;14.08;95.86
39295;BME280;52361;52.100;5.248;2022-11-15T11:09:05;100488.0;;;14.07;95.78